createdAt,value
2016-09-28T00:00:13.613Z,0
2016-09-28T00:01:13.697Z,0
2016-09-28T00:02:13.783Z,0
2016-09-28T00:03:13.746Z,0
2016-09-28T00:04:13.694Z,0
2016-09-28T00:05:13.748Z,0
2016-09-28T00:06:13.354Z,0
2016-09-28T00:07:13.298Z,0
2016-09-28T00:08:13.239Z,0
2016-09-28T00:09:18.600Z,0
2016-09-28T00:10:13.719Z,0
2016-09-28T00:11:13.178Z,0
2016-09-28T00:12:13.921Z,0
2016-09-28T00:13:13.116Z,0
2016-09-28T00:14:13.074Z,0
2016-09-28T00:15:13.782Z,0
2016-09-28T00:16:13.000Z,0
2016-09-28T00:17:13.353Z,0
2016-09-28T00:18:13.045Z,0
2016-09-28T00:19:12.994Z,0
2016-09-28T00:20:27.956Z,0
2016-09-28T00:21:13.317Z,0
2016-09-28T00:22:12.895Z,0
2016-09-28T00:23:12.862Z,0
2016-09-28T00:24:12.816Z,0
2016-09-28T00:25:12.787Z,0
2016-09-28T00:26:13.158Z,0
2016-09-28T00:27:27.736Z,0
2016-09-28T00:28:13.533Z,0
2016-09-28T00:29:27.347Z,0
2016-09-28T00:30:13.046Z,0
2016-09-28T00:31:12.580Z,0
2016-09-28T00:32:12.995Z,0
2016-09-28T00:33:12.955Z,0
2016-09-28T00:34:12.901Z,0
2016-09-28T00:35:12.874Z,0
2016-09-28T00:36:12.917Z,0
2016-09-28T00:37:12.949Z,0
2016-09-28T00:38:12.465Z,0
2016-09-28T00:39:13.104Z,0
2016-09-28T00:40:27.063Z,0
2016-09-28T00:41:12.366Z,0
2016-09-28T00:42:27.088Z,0
2016-09-28T00:43:12.312Z,0
2016-09-28T00:44:12.701Z,0
2016-09-28T00:45:12.645Z,0
2016-09-28T00:46:12.799Z,0
2016-09-28T00:47:12.617Z,0
2016-09-28T00:48:12.629Z,0
2016-09-28T00:49:12.206Z,0
2016-09-28T00:50:12.118Z,0
2016-09-28T00:51:12.872Z,0
2016-09-28T00:52:12.971Z,0
2016-09-28T00:53:26.719Z,0
2016-09-28T00:54:27.079Z,0
2016-09-28T00:55:11.940Z,0
2016-09-28T00:56:12.568Z,0
2016-09-28T00:57:12.306Z,0
2016-09-28T00:58:11.894Z,0
2016-09-28T00:59:11.950Z,0
2016-09-28T01:00:13.032Z,0
2016-09-28T01:01:11.875Z,0
2016-09-28T01:02:11.816Z,0
2016-09-28T01:03:11.777Z,0
2016-09-28T01:04:11.787Z,0
2016-09-28T01:05:12.286Z,0
2016-09-28T01:06:11.685Z,0
2016-09-28T01:07:11.635Z,0
2016-09-28T01:08:11.613Z,0
2016-09-28T01:09:11.642Z,0
2016-09-28T01:10:12.141Z,0
2016-09-28T01:11:11.526Z,0
2016-09-28T01:12:11.575Z,0
2016-09-28T01:13:11.855Z,0
2016-09-28T01:14:11.855Z,0
2016-09-28T01:15:12.647Z,0
2016-09-28T01:16:11.414Z,0
2016-09-28T01:17:11.390Z,0
2016-09-28T01:18:11.848Z,0
2016-09-28T01:19:11.428Z,0
2016-09-28T01:20:11.318Z,0
2016-09-28T01:22:11.336Z,0
2016-09-28T01:23:25.973Z,0
2016-09-28T01:24:11.179Z,0
2016-09-28T01:25:11.174Z,0
2016-09-28T01:26:11.501Z,0
2016-09-28T01:27:26.255Z,0
2016-09-28T01:28:11.075Z,0
2016-09-28T01:29:11.057Z,0
2016-09-28T01:30:11.030Z,0
2016-09-28T01:31:11.052Z,0
2016-09-28T01:32:11.371Z,0
2016-09-28T01:33:10.974Z,0
2016-09-28T01:34:25.608Z,0
2016-09-28T01:35:11.288Z,0
2016-09-28T01:36:11.762Z,0
2016-09-28T01:37:11.582Z,0
2016-09-28T01:38:11.199Z,0
2016-09-28T01:39:10.803Z,0
2016-09-28T01:40:11.152Z,0
2016-09-28T01:41:11.170Z,0
2016-09-28T01:42:11.279Z,0
2016-09-28T01:43:25.352Z,0
2016-09-28T01:44:10.634Z,0
2016-09-28T01:45:11.835Z,0
2016-09-28T01:46:10.991Z,0
2016-09-28T01:47:10.556Z,0
2016-09-28T01:48:10.978Z,0
2016-09-28T01:49:10.986Z,0
2016-09-28T01:50:10.557Z,0
2016-09-28T01:51:10.552Z,0
2016-09-28T01:53:10.459Z,0
2016-09-28T01:54:11.072Z,0
2016-09-28T01:55:10.742Z,0
2016-09-28T01:56:10.724Z,0
2016-09-28T01:57:10.316Z,0
2016-09-28T01:58:10.297Z,0
2016-09-28T01:59:10.731Z,0
2016-09-28T02:00:10.958Z,0
2016-09-28T02:01:10.245Z,0
2016-09-28T02:02:10.186Z,0
2016-09-28T02:03:10.189Z,0
2016-09-28T02:04:10.115Z,0
2016-09-28T02:05:10.116Z,0
2016-09-28T02:06:10.052Z,0
2016-09-28T02:08:10.390Z,0
2016-09-28T02:10:10.356Z,0
2016-09-28T02:11:09.921Z,0
2016-09-28T02:12:09.912Z,0
2016-09-28T02:13:10.254Z,0
2016-09-28T02:14:09.945Z,0
2016-09-28T02:15:09.915Z,0
2016-09-28T02:16:09.889Z,0
2016-09-28T02:17:09.937Z,0
2016-09-28T02:18:24.822Z,0
2016-09-28T02:19:10.135Z,0
2016-09-28T02:20:10.213Z,0
2016-09-28T02:21:10.416Z,0
2016-09-28T02:22:10.899Z,0
2016-09-28T02:23:09.698Z,0
2016-09-28T02:24:09.991Z,0
2016-09-28T02:25:09.924Z,0
2016-09-28T02:26:09.572Z,0
2016-09-28T02:27:09.498Z,0
2016-09-28T02:28:09.831Z,0
2016-09-28T02:30:09.400Z,0
2016-09-28T02:31:24.447Z,0
2016-09-28T02:32:09.873Z,0
2016-09-28T02:33:24.391Z,0
2016-09-28T02:34:09.401Z,0
2016-09-28T02:35:23.966Z,0
2016-09-28T02:36:09.654Z,0
2016-09-28T02:37:09.221Z,0
2016-09-28T02:38:09.274Z,0
2016-09-28T02:39:09.161Z,0
2016-09-28T02:40:09.170Z,0
2016-09-28T02:41:09.528Z,0
2016-09-28T02:42:09.097Z,0
2016-09-28T02:43:09.667Z,0
2016-09-28T02:44:09.076Z,0
2016-09-28T02:45:09.046Z,0
2016-09-28T02:46:24.047Z,0
2016-09-28T02:47:09.769Z,0
2016-09-28T02:48:23.605Z,0
2016-09-28T02:49:08.916Z,0
2016-09-28T02:50:09.268Z,0
2016-09-28T02:51:08.849Z,0
2016-09-28T02:52:09.199Z,0
2016-09-28T02:53:08.808Z,0
2016-09-28T02:54:09.576Z,0
2016-09-28T02:55:08.755Z,0
2016-09-28T02:56:09.226Z,0
2016-09-28T02:57:09.176Z,0
2016-09-28T02:58:08.741Z,0
2016-09-28T02:59:08.677Z,0
2016-09-28T03:00:09.059Z,0
2016-09-28T03:01:08.587Z,0
2016-09-28T03:02:08.561Z,0
2016-09-28T03:03:08.970Z,0
2016-09-28T03:04:08.853Z,0
2016-09-28T03:05:08.889Z,0
2016-09-28T03:06:08.526Z,0
2016-09-28T03:08:08.428Z,0
2016-09-28T03:09:08.406Z,0
2016-09-28T03:10:08.749Z,0
2016-09-28T03:11:09.216Z,0
2016-09-28T03:12:08.709Z,0
2016-09-28T03:13:08.262Z,0
2016-09-28T03:14:08.343Z,0
2016-09-28T03:15:22.906Z,0
2016-09-28T03:16:08.280Z,0
2016-09-28T03:17:08.231Z,0
2016-09-28T03:19:08.112Z,0
2016-09-28T03:20:08.129Z,0
2016-09-28T03:21:08.149Z,0
2016-09-28T03:22:23.426Z,0
2016-09-28T03:23:08.025Z,0
2016-09-28T03:25:07.963Z,0
2016-09-28T03:27:08.668Z,0
2016-09-28T03:28:07.851Z,0
2016-09-28T03:29:07.826Z,0
2016-09-28T03:30:08.280Z,0
2016-09-28T03:31:07.769Z,0
2016-09-28T03:32:08.135Z,0
2016-09-28T03:33:07.748Z,0
2016-09-28T03:34:08.147Z,0
2016-09-28T03:35:08.408Z,0
2016-09-28T03:37:07.662Z,0
2016-09-28T03:38:07.585Z,0
2016-09-28T03:39:07.960Z,0
2016-09-28T03:40:22.545Z,0
2016-09-28T03:41:07.518Z,0
2016-09-28T03:42:07.512Z,0
2016-09-28T03:43:07.945Z,0
2016-09-28T03:44:07.574Z,0
2016-09-28T03:45:07.446Z,0
2016-09-28T03:46:07.926Z,0
2016-09-28T03:47:07.493Z,0
2016-09-28T03:48:07.468Z,0
2016-09-28T03:49:07.778Z,0
2016-09-28T03:50:07.430Z,0
2016-09-28T03:51:07.324Z,0
2016-09-28T03:52:07.273Z,0
2016-09-28T03:53:07.379Z,0
2016-09-28T03:54:07.645Z,0
2016-09-28T03:55:07.657Z,0
2016-09-28T03:56:07.191Z,0
2016-09-28T03:57:07.221Z,0
2016-09-28T03:58:07.503Z,0
2016-09-28T03:59:07.409Z,0
2016-09-28T04:00:19.728Z,0
2016-09-28T04:01:07.403Z,0
2016-09-28T04:02:21.629Z,0
2016-09-28T04:03:07.007Z,0
2016-09-28T04:04:07.217Z,0
2016-09-28T04:05:08.095Z,0
2016-09-28T04:06:07.252Z,0
2016-09-28T04:07:06.830Z,0
2016-09-28T04:08:21.472Z,0
2016-09-28T04:09:06.740Z,0
2016-09-28T04:10:06.974Z,0
2016-09-28T04:11:06.771Z,0
2016-09-28T04:12:07.684Z,0
2016-09-28T04:13:07.076Z,0
2016-09-28T04:14:06.634Z,0
2016-09-28T04:16:06.990Z,0
2016-09-28T04:17:21.271Z,0
2016-09-28T04:18:06.516Z,0
2016-09-28T04:19:06.545Z,0
2016-09-28T04:20:06.857Z,0
2016-09-28T04:21:06.948Z,0
2016-09-28T04:22:07.161Z,0
2016-09-28T04:23:06.582Z,0
2016-09-28T04:24:07.116Z,0
2016-09-28T04:25:06.440Z,0
2016-09-28T04:26:06.691Z,0
2016-09-28T04:27:22.141Z,0
2016-09-28T04:28:23.000Z,0
2016-09-28T04:29:08.524Z,0
2016-09-28T04:30:20.877Z,0
2016-09-28T04:31:06.567Z,0
2016-09-28T04:32:06.864Z,0
2016-09-28T04:33:06.105Z,0
2016-09-28T04:34:06.122Z,0
2016-09-28T04:35:06.463Z,0
2016-09-28T04:36:06.038Z,0
2016-09-28T04:37:06.526Z,0
2016-09-28T04:38:06.000Z,0
2016-09-28T04:39:20.625Z,0
2016-09-28T04:40:06.014Z,0
2016-09-28T04:41:05.910Z,0
2016-09-28T04:42:06.209Z,0
2016-09-28T04:43:06.424Z,0
2016-09-28T04:44:06.231Z,0
2016-09-28T04:45:06.176Z,0
2016-09-28T04:46:05.793Z,0
2016-09-28T04:47:06.084Z,0
2016-09-28T04:48:05.736Z,0
2016-09-28T04:49:05.694Z,0
2016-09-28T04:50:06.082Z,0
2016-09-28T04:51:05.666Z,0
2016-09-28T04:52:20.273Z,0
2016-09-28T04:53:05.574Z,0
2016-09-28T04:54:20.250Z,0
2016-09-28T04:55:05.563Z,0
2016-09-28T04:56:05.539Z,0
2016-09-28T04:57:05.940Z,0
2016-09-28T04:58:05.540Z,0
2016-09-28T04:59:05.427Z,0
2016-09-28T05:00:05.787Z,0
2016-09-28T05:01:06.494Z,0
2016-09-28T05:02:05.345Z,0
2016-09-28T05:03:20.039Z,0
2016-09-28T05:04:05.689Z,0
2016-09-28T05:05:10.816Z,0
2016-09-28T05:06:06.030Z,0
2016-09-28T05:07:11.508Z,0
2016-09-28T05:08:05.176Z,0
2016-09-28T05:09:05.678Z,4
2016-09-28T05:10:05.524Z,4
2016-09-28T05:11:06.290Z,0
2016-09-28T05:12:05.588Z,0
2016-09-28T05:13:05.523Z,4
2016-09-28T05:14:05.600Z,4
2016-09-28T05:15:05.431Z,4
2016-09-28T05:16:04.979Z,4
2016-09-28T05:17:05.371Z,8
2016-09-28T05:18:05.827Z,4
2016-09-28T05:19:05.359Z,8
2016-09-28T05:20:05.298Z,8
2016-09-28T05:21:05.264Z,12
2016-09-28T05:22:04.946Z,8
2016-09-28T05:23:06.317Z,12
2016-09-28T05:24:19.416Z,12
2016-09-28T05:25:05.108Z,16
2016-09-28T05:26:05.502Z,16
2016-09-28T05:27:05.884Z,16
2016-09-28T05:28:05.297Z,20
2016-09-28T05:29:04.671Z,20
2016-09-28T05:30:05.165Z,20
2016-09-28T05:31:19.644Z,24
2016-09-28T05:32:05.340Z,28
2016-09-28T05:33:04.721Z,24
2016-09-28T05:34:19.156Z,24
2016-09-28T05:35:05.367Z,28
2016-09-28T05:36:04.829Z,32
2016-09-28T05:37:04.405Z,32
2016-09-28T05:38:04.467Z,32
2016-09-28T05:39:04.914Z,36
2016-09-28T05:40:04.820Z,36
2016-09-28T05:41:05.097Z,40
2016-09-28T05:42:04.693Z,40
2016-09-28T05:43:04.270Z,40
2016-09-28T05:44:04.267Z,44
2016-09-28T05:45:19.320Z,48
2016-09-28T05:46:05.791Z,48
2016-09-28T05:49:13.883Z,68
2016-09-28T05:49:44.908Z,76
2016-09-28T05:51:00.557Z,76
2016-09-28T05:51:44.917Z,80
2016-09-28T05:52:45.202Z,80
2016-09-28T05:53:44.548Z,88
2016-09-28T05:54:44.823Z,88
2016-09-28T05:56:44.273Z,96
2016-09-28T05:57:59.631Z,104
2016-09-28T05:59:44.688Z,108
2016-09-28T06:00:44.245Z,116
2016-09-28T06:01:58.978Z,128
2016-09-28T06:02:45.163Z,124
2016-09-28T06:03:44.581Z,132
2016-09-28T06:04:44.821Z,140
2016-09-28T06:05:44.793Z,144
2016-09-28T06:06:45.185Z,144
2016-09-28T06:07:44.597Z,152
2016-09-28T06:08:44.344Z,168
2016-09-28T06:09:44.505Z,180
2016-09-28T06:10:45.660Z,180
2016-09-28T06:11:44.355Z,188
2016-09-28T06:12:44.924Z,192
2016-09-28T06:13:43.909Z,204
2016-09-28T06:14:43.892Z,204
2016-09-28T06:15:43.866Z,216
2016-09-28T06:16:44.512Z,212
2016-09-28T06:17:44.152Z,228
2016-09-28T06:18:44.319Z,232
2016-09-28T06:19:51.213Z,220
2016-09-28T06:20:43.694Z,220
2016-09-28T06:21:44.122Z,232
2016-09-28T06:22:43.979Z,220
2016-09-28T06:23:44.050Z,232
2016-09-28T06:24:44.434Z,228
2016-09-28T06:25:43.733Z,244
2016-09-28T06:26:52.510Z,232
2016-09-28T06:27:43.497Z,232
2016-09-28T06:28:58.513Z,220
2016-09-28T06:29:43.804Z,216
2016-09-28T06:30:43.989Z,220
2016-09-28T06:31:43.380Z,228
2016-09-28T06:32:43.751Z,240
2016-09-28T06:33:43.374Z,264
2016-09-28T06:34:43.740Z,292
2016-09-28T06:35:58.360Z,280
2016-09-28T06:36:43.275Z,284
2016-09-28T06:37:43.613Z,288
2016-09-28T06:39:12.935Z,304
2016-09-28T06:39:43.574Z,300
2016-09-28T06:40:43.360Z,284
2016-09-28T06:41:57.776Z,268
2016-09-28T06:42:44.139Z,260
2016-09-28T06:43:44.455Z,260
2016-09-28T06:44:43.870Z,256
2016-09-28T06:45:43.809Z,240
2016-09-28T06:46:43.376Z,216
2016-09-28T06:47:43.434Z,208
2016-09-28T06:48:57.590Z,240
2016-09-28T06:49:42.960Z,272
2016-09-28T06:50:43.722Z,296
2016-09-28T06:51:43.226Z,376
2016-09-28T06:52:44.013Z,428
2016-09-28T06:53:43.963Z,460
2016-09-28T06:54:43.134Z,396
2016-09-28T06:55:44.157Z,304
2016-09-28T06:56:43.453Z,268
2016-09-28T06:57:59.150Z,316
2016-09-28T06:58:42.667Z,364
2016-09-28T07:00:42.810Z,480
2016-09-28T07:01:42.706Z,420
2016-09-28T07:02:42.526Z,404
2016-09-28T07:03:57.971Z,436
2016-09-28T07:04:42.472Z,472
2016-09-28T07:05:42.829Z,472
2016-09-28T07:06:57.252Z,396
2016-09-28T07:07:42.720Z,412
2016-09-28T07:08:42.933Z,400
2016-09-28T07:09:42.732Z,356
2016-09-28T07:11:42.499Z,308
2016-09-28T07:12:42.668Z,328
2016-09-28T07:13:57.089Z,384
2016-09-28T07:14:57.268Z,340
2016-09-28T07:15:57.192Z,364
2016-09-28T07:16:42.419Z,320
2016-09-28T07:17:42.574Z,308
2016-09-28T07:18:56.845Z,300
2016-09-28T07:19:42.951Z,328
2016-09-28T07:20:42.342Z,316
2016-09-28T07:21:42.152Z,320
2016-09-28T07:23:42.232Z,288
2016-09-28T07:24:56.666Z,276
2016-09-28T07:25:57.017Z,276
2016-09-28T07:26:56.656Z,264
2016-09-28T07:27:41.928Z,248
2016-09-28T07:29:11.572Z,300
2016-09-28T07:29:41.864Z,264
2016-09-28T07:30:42.279Z,268
2016-09-28T07:31:42.388Z,328
2016-09-28T07:32:41.850Z,340
2016-09-28T07:33:42.110Z,304
2016-09-28T07:34:42.137Z,292
2016-09-28T07:35:42.266Z,276
2016-09-28T07:36:42.808Z,268
2016-09-28T07:37:42.590Z,260
2016-09-28T07:42:27.777Z,360
2016-09-28T07:43:27.650Z,352
2016-09-28T07:44:27.596Z,312
2016-09-28T07:45:28.357Z,360
2016-09-28T07:46:27.602Z,396
2016-09-28T07:47:27.594Z,388
2016-09-28T07:48:27.517Z,412
2016-09-28T07:49:27.651Z,360
2016-09-28T07:50:27.538Z,444
2016-09-28T07:51:27.431Z,460
2016-09-28T07:52:27.402Z,464
2016-09-28T07:53:27.403Z,492
2016-09-28T07:54:42.068Z,492
2016-09-28T07:55:27.491Z,500
2016-09-28T07:56:27.284Z,492
2016-09-28T07:57:27.361Z,572
2016-09-28T07:58:27.390Z,680
2016-09-28T07:59:27.296Z,764
2016-09-28T08:00:27.260Z,668
2016-09-28T08:01:27.151Z,696
2016-09-28T08:02:27.144Z,732
2016-09-28T08:03:27.100Z,744
2016-09-28T08:04:27.110Z,764
2016-09-28T08:05:27.056Z,712
2016-09-28T08:06:27.029Z,768
2016-09-28T08:07:26.980Z,776
2016-09-28T08:08:26.955Z,884
2016-09-28T08:09:26.978Z,980
2016-09-28T08:10:26.957Z,984
2016-09-28T08:11:26.868Z,1028
2016-09-28T08:12:27.185Z,816
2016-09-28T08:13:27.391Z,872
2016-09-28T08:14:26.902Z,764
2016-09-28T08:15:26.756Z,604
2016-09-28T08:16:26.821Z,756
2016-09-28T08:17:26.756Z,868
2016-09-28T08:18:26.694Z,1084
2016-09-28T08:19:26.670Z,1040
2016-09-28T08:20:26.844Z,920
2016-09-28T08:21:26.640Z,924
2016-09-28T08:22:26.595Z,1012
2016-09-28T08:23:26.983Z,1012
2016-09-28T08:24:26.533Z,1008
2016-09-28T08:25:26.890Z,912
2016-09-28T08:26:26.486Z,864
2016-09-28T08:27:26.435Z,836
2016-09-28T08:28:26.830Z,800
2016-09-28T08:29:26.391Z,848
2016-09-28T08:30:26.420Z,956
2016-09-28T08:31:26.650Z,888
2016-09-28T08:32:26.366Z,704
2016-09-28T08:33:41.170Z,644
2016-09-28T08:34:26.271Z,652
2016-09-28T08:35:26.230Z,700
2016-09-28T08:36:27.515Z,660
2016-09-28T08:37:26.303Z,636
2016-09-28T08:38:26.184Z,548
2016-09-28T08:39:26.148Z,524
2016-09-28T08:40:26.101Z,536
2016-09-28T08:41:41.096Z,536
2016-09-28T08:42:26.108Z,556
2016-09-28T08:43:26.712Z,660
2016-09-28T08:44:26.011Z,688
2016-09-28T08:45:26.313Z,600
2016-09-28T08:46:40.658Z,496
2016-09-28T08:47:25.911Z,512
2016-09-28T08:48:27.182Z,520
2016-09-28T08:49:25.895Z,508
2016-09-28T08:50:25.875Z,716
2016-09-28T08:51:26.260Z,716
2016-09-28T08:52:25.835Z,676
2016-09-28T08:53:25.781Z,656
2016-09-28T08:54:30.805Z,804
2016-09-28T08:55:25.721Z,644
2016-09-28T08:56:25.678Z,464
2016-09-28T08:57:25.675Z,548
2016-09-28T08:58:25.651Z,520
2016-09-28T08:59:25.968Z,564
2016-09-28T09:00:26.217Z,576
2016-09-28T09:01:25.616Z,672
2016-09-28T09:02:26.312Z,852
2016-09-28T09:03:25.879Z,956
2016-09-28T09:04:25.501Z,980
2016-09-28T09:05:40.493Z,804
2016-09-28T09:06:25.540Z,932
2016-09-28T09:07:40.141Z,1032
2016-09-28T09:08:25.444Z,956
2016-09-28T09:09:25.389Z,1044
2016-09-28T09:10:25.516Z,924
2016-09-28T09:11:25.273Z,1196
2016-09-28T09:12:25.312Z,1312
2016-09-28T09:13:25.591Z,1408
2016-09-28T09:14:39.935Z,1212
2016-09-28T09:15:25.536Z,1308
2016-09-28T09:16:25.352Z,1292
2016-09-28T09:17:25.527Z,1248
2016-09-28T09:18:25.117Z,1024
2016-09-28T09:19:25.521Z,820
2016-09-28T09:20:25.160Z,836
2016-09-28T09:21:25.375Z,904
2016-09-28T09:22:25.040Z,772
2016-09-28T09:23:40.049Z,560
2016-09-28T09:24:25.009Z,620
2016-09-28T09:25:25.291Z,500
2016-09-28T09:26:24.955Z,504
2016-09-28T09:27:24.863Z,432
2016-09-28T09:28:24.844Z,432
2016-09-28T09:29:24.829Z,556
2016-09-28T09:30:24.865Z,792
2016-09-28T09:31:24.860Z,668
2016-09-28T09:32:25.081Z,572
2016-09-28T09:33:24.728Z,572
2016-09-28T09:34:39.410Z,684
2016-09-28T09:35:25.075Z,788
2016-09-28T09:36:39.385Z,1128
2016-09-28T09:37:24.599Z,1320
2016-09-28T09:38:24.577Z,1428
2016-09-28T09:39:24.580Z,1544
2016-09-28T09:40:24.934Z,1424
2016-09-28T09:41:24.586Z,1596
2016-09-28T09:42:24.500Z,1732
2016-09-28T09:43:25.147Z,1736
2016-09-28T09:44:24.450Z,1428
2016-09-28T09:45:24.453Z,1448
2016-09-28T09:46:24.735Z,1508
2016-09-28T09:47:24.384Z,1484
2016-09-28T09:48:24.342Z,1684
2016-09-28T09:49:24.676Z,1840
2016-09-28T09:50:26.220Z,2048
2016-09-28T09:51:39.667Z,1680
2016-09-28T09:52:25.952Z,1452
2016-09-28T09:53:25.771Z,1272
2016-09-28T09:54:25.133Z,1268
2016-09-28T09:55:24.413Z,1276
2016-09-28T09:56:24.529Z,1212
2016-09-28T09:57:24.467Z,1228
2016-09-28T09:58:24.068Z,1324
2016-09-28T09:59:24.052Z,1336
2016-09-28T10:00:38.709Z,1380
2016-09-28T10:01:23.975Z,1316
2016-09-28T10:02:38.653Z,1352
2016-09-28T10:03:23.920Z,1264
2016-09-28T10:04:23.868Z,856
2016-09-28T10:05:23.867Z,776
2016-09-28T10:06:38.582Z,676
2016-09-28T10:07:23.808Z,676
2016-09-28T10:08:23.824Z,844
2016-09-28T10:09:23.785Z,876
2016-09-28T10:10:24.429Z,880
2016-09-28T10:11:23.730Z,728
2016-09-28T10:12:23.974Z,704
2016-09-28T10:13:23.658Z,684
2016-09-28T10:14:23.691Z,800
2016-09-28T10:15:23.679Z,832
2016-09-28T10:16:23.686Z,820
2016-09-28T10:17:23.593Z,840
2016-09-28T10:18:23.555Z,772
2016-09-28T10:19:23.542Z,692
2016-09-28T10:20:23.530Z,700
2016-09-28T10:21:23.510Z,612
2016-09-28T10:22:23.533Z,652
2016-09-28T10:23:23.580Z,704
2016-09-28T10:24:23.490Z,972
2016-09-28T10:25:23.462Z,932
2016-09-28T10:26:23.341Z,1156
2016-09-28T10:27:23.338Z,1400
2016-09-28T10:28:23.253Z,1612
2016-09-28T10:29:23.292Z,1384
2016-09-28T10:30:23.250Z,1292
2016-09-28T10:31:24.070Z,1116
2016-09-28T10:32:23.192Z,1104
2016-09-28T10:33:23.167Z,1268
2016-09-28T10:34:23.129Z,1408
2016-09-28T10:35:23.072Z,1340
2016-09-28T10:36:23.084Z,1296
2016-09-28T10:37:23.503Z,1256
2016-09-28T10:38:23.985Z,1292
2016-09-28T10:42:09.943Z,1752
2016-09-28T10:43:09.908Z,1648
2016-09-28T10:44:24.077Z,1824
2016-09-28T10:45:24.639Z,1728
2016-09-28T10:47:10.027Z,1744
2016-09-28T10:48:10.083Z,1828
2016-09-28T10:49:09.747Z,2044
2016-09-28T10:50:09.912Z,2036
2016-09-28T10:51:09.372Z,1872
2016-09-28T10:52:09.978Z,1996
2016-09-28T10:53:11.060Z,1616
2016-09-28T10:54:09.953Z,1368
2016-09-28T10:55:09.769Z,1712
2016-09-28T10:56:09.128Z,1628
2016-09-28T10:57:09.280Z,1624
2016-09-28T10:58:09.467Z,1672
2016-09-28T11:00:09.509Z,1836
2016-09-28T11:01:23.798Z,2080
2016-09-28T11:02:10.391Z,1944
2016-09-28T11:03:10.452Z,1972
2016-09-28T11:04:09.927Z,1952
2016-09-28T11:05:11.410Z,1800
2016-09-28T11:06:09.228Z,2012
2016-09-28T11:07:09.190Z,2164
2016-09-28T11:08:09.451Z,1968
2016-09-28T11:09:23.451Z,2052
2016-09-28T11:10:09.305Z,1980
2016-09-28T11:11:23.905Z,1964
2016-09-28T11:12:10.115Z,1644
2016-09-28T11:13:08.929Z,1512
2016-09-28T11:14:09.274Z,1800
2016-09-28T11:15:09.667Z,2048
2016-09-28T11:16:23.347Z,2360
2016-09-28T11:17:09.318Z,2344
2016-09-28T11:18:23.967Z,1960
2016-09-28T11:20:23.299Z,1772
2016-09-28T11:21:09.067Z,1772
2016-09-28T11:22:23.120Z,2016
2016-09-28T11:23:23.626Z,1848
2016-09-28T11:25:08.882Z,1996
2016-09-28T11:26:09.876Z,1560
2016-09-28T11:27:23.590Z,1608
2016-09-28T11:28:08.682Z,1916
2016-09-28T11:29:23.353Z,2612
2016-09-28T11:30:09.151Z,2696
2016-09-28T11:31:08.359Z,2472
2016-09-28T11:32:08.273Z,2056
2016-09-28T11:33:08.704Z,1992
2016-09-28T11:34:10.156Z,2116
2016-09-28T11:37:00.958Z,2036
2016-09-28T11:37:31.320Z,2004
2016-09-28T11:38:31.637Z,2340
2016-09-28T11:39:31.640Z,2076
2016-09-28T11:40:31.705Z,2388
2016-09-28T11:41:32.126Z,2328
2016-09-28T11:42:32.220Z,2316
2016-09-28T11:43:31.183Z,2164
2016-09-28T11:44:31.223Z,2172
2016-09-28T11:45:31.874Z,2192
2016-09-28T11:46:31.181Z,1656
2016-09-28T11:47:31.830Z,1800
2016-09-28T11:48:31.394Z,1732
2016-09-28T11:49:45.800Z,1944
2016-09-28T11:50:31.512Z,1876
2016-09-28T11:51:31.352Z,1924
2016-09-28T11:52:30.969Z,2768
2016-09-28T11:53:31.174Z,2968
2016-09-28T11:54:30.749Z,2672
2016-09-28T11:55:45.663Z,2620
2016-09-28T11:56:31.600Z,2492
2016-09-28T11:57:31.209Z,2232
2016-09-28T11:59:30.653Z,2156
2016-09-28T12:00:32.199Z,2184
2016-09-28T12:01:30.958Z,2184
2016-09-28T12:02:30.916Z,2184
2016-09-28T12:03:33.488Z,2264
2016-09-28T12:05:45.629Z,2352
2016-09-28T12:06:30.554Z,2328
2016-09-28T12:07:30.908Z,2556
2016-09-28T12:08:31.165Z,3080
2016-09-28T12:09:30.708Z,2572
2016-09-28T12:10:31.248Z,3336
2016-09-28T12:11:31.018Z,3236
2016-09-28T12:12:30.263Z,2564
2016-09-28T12:13:30.777Z,2788
2016-09-28T12:14:30.499Z,2872
2016-09-28T12:15:31.308Z,2752
2016-09-28T12:16:30.351Z,2740
2016-09-28T12:17:30.181Z,2476
2016-09-28T12:18:30.849Z,1948
2016-09-28T12:19:44.816Z,1900
2016-09-28T12:20:31.243Z,2060
2016-09-28T12:21:31.804Z,1988
2016-09-28T12:22:30.632Z,1816
2016-09-28T12:23:30.508Z,2104
2016-09-28T12:24:30.661Z,2064
2016-09-28T12:25:30.136Z,2176
2016-09-28T12:26:30.169Z,1972
2016-09-28T12:27:45.018Z,2472
2016-09-28T12:28:30.300Z,2264
2016-09-28T12:29:31.116Z,2240
2016-09-28T12:30:31.228Z,2384
2016-09-28T12:32:53.686Z,2480
2016-09-28T12:34:53.538Z,2520
2016-09-28T12:36:08.772Z,2580
2016-09-28T12:37:08.090Z,2648
2016-09-28T12:38:10.459Z,2704
2016-09-28T12:39:10.846Z,2900
2016-09-28T12:40:09.191Z,2796
2016-09-28T12:40:56.456Z,2756
2016-09-28T12:42:09.087Z,3104
2016-09-28T12:43:55.304Z,2732
2016-09-28T12:44:52.871Z,2680
2016-09-28T12:49:14.127Z,2384
2016-09-28T12:49:42.037Z,2412
2016-09-28T12:51:14.883Z,2380
2016-09-28T12:51:51.083Z,2816
2016-09-28T12:52:41.808Z,2828
2016-09-28T12:53:41.850Z,2656
2016-09-28T12:54:41.811Z,2764
2016-09-28T12:55:41.747Z,2980
2016-09-28T12:56:41.886Z,3416
2016-09-28T12:57:41.850Z,3272
2016-09-28T12:58:42.091Z,3500
2016-09-28T12:59:41.646Z,3984
2016-09-28T13:00:41.609Z,4224
2016-09-28T13:01:41.570Z,9556
2016-09-28T13:02:56.268Z,8856
2016-09-28T13:03:41.590Z,5772
2016-09-28T13:04:41.550Z,4348
2016-09-28T13:05:41.604Z,4144
2016-09-28T13:06:42.035Z,5620
2016-09-28T13:07:56.556Z,3588
2016-09-28T13:08:41.507Z,3932
2016-09-28T13:09:41.480Z,4748
2016-09-28T13:10:41.445Z,4716
2016-09-28T13:11:41.539Z,8536
2016-09-28T13:12:41.349Z,6008
2016-09-28T13:13:41.755Z,5196
2016-09-28T13:14:41.679Z,4124
2016-09-28T13:15:41.306Z,3492
2016-09-28T13:16:41.249Z,3272
2016-09-28T13:17:41.620Z,3620
2016-09-28T13:18:41.182Z,3448
2016-09-28T13:19:41.573Z,5208
2016-09-28T13:20:41.364Z,4620
2016-09-28T13:21:42.303Z,3472
2016-09-28T13:22:43.416Z,3408
2016-09-28T13:23:41.091Z,3616
2016-09-28T13:24:41.100Z,3712
2016-09-28T13:25:41.024Z,3784
2016-09-28T13:26:41.559Z,2944
2016-09-28T13:27:41.078Z,2724
2016-09-28T13:28:56.936Z,2112
2016-09-28T13:29:40.904Z,2088
2016-09-28T13:34:11.371Z,1652
2016-09-28T13:34:27.892Z,1636
2016-09-28T13:35:27.359Z,1636
2016-09-28T13:36:28.047Z,1828
2016-09-28T13:37:28.234Z,1724
2016-09-28T13:38:27.436Z,1904
2016-09-28T13:39:42.210Z,2432
2016-09-28T13:40:28.003Z,2340
2016-09-28T13:41:27.953Z,1788
2016-09-28T13:42:27.956Z,1376
2016-09-28T13:43:27.297Z,1328
2016-09-28T13:44:41.831Z,1452
2016-09-28T13:45:28.270Z,1516
2016-09-28T13:46:28.132Z,1616
2016-09-28T13:47:27.173Z,1816
2016-09-28T13:48:27.412Z,2248
2016-09-28T13:49:27.617Z,3340
2016-09-28T13:54:21.967Z,2396
2016-09-28T13:55:21.945Z,2400
2016-09-28T13:56:21.994Z,5512
2016-09-28T13:57:22.599Z,3480
2016-09-28T13:58:36.515Z,2148
2016-09-28T13:59:21.476Z,2020
2016-09-28T14:03:22.454Z,2240
2016-09-28T14:04:07.700Z,2260
2016-09-28T14:05:08.213Z,2396
2016-09-28T14:06:08.120Z,2828
2016-09-28T14:07:07.993Z,2804
2016-09-28T14:08:07.608Z,2724
2016-09-28T14:09:07.556Z,3112
2016-09-28T14:10:07.568Z,2864
2016-09-28T14:11:07.888Z,2464
2016-09-28T14:12:07.512Z,3232
2016-09-28T14:13:22.179Z,2620
2016-09-28T14:14:07.438Z,2848
2016-09-28T14:15:07.420Z,1904
2016-09-28T14:16:07.565Z,1884
2016-09-28T14:17:07.864Z,1732
2016-09-28T14:18:07.411Z,1736
2016-09-28T14:19:08.082Z,1684
2016-09-28T14:20:07.310Z,1704
2016-09-28T14:21:07.462Z,1512
2016-09-28T14:22:07.423Z,1708
2016-09-28T14:23:07.877Z,1896
2016-09-28T14:24:21.910Z,2996
2016-09-28T14:25:07.929Z,3920
2016-09-28T14:26:21.921Z,2672
2016-09-28T14:27:08.202Z,1304
2016-09-28T14:28:07.169Z,1212
2016-09-28T14:29:07.216Z,4756
2016-09-28T14:30:07.558Z,6000
2016-09-28T14:31:08.250Z,5028
2016-09-28T14:32:07.987Z,1408
2016-09-28T14:33:07.367Z,1036
2016-09-28T14:34:07.823Z,1004
2016-09-28T14:35:07.888Z,1000
2016-09-28T14:36:07.007Z,976
2016-09-28T14:38:07.032Z,1004
2016-09-28T14:39:06.947Z,1276
2016-09-28T14:40:07.039Z,2024
2016-09-28T14:41:07.357Z,2016
2016-09-28T14:42:06.937Z,888
2016-09-28T14:43:06.782Z,872
2016-09-28T14:44:07.162Z,848
2016-09-28T14:45:21.460Z,808
2016-09-28T14:46:07.423Z,828
2016-09-28T14:47:21.740Z,808